Orense, España

2:14 PM CEST en Octubre 22, 2014 (GMT +0200)
Vigo | Change Station
CLOSE
Current Station
Aeropuerto
Location: Vigo,
Altura: 840 ft
Estaciones meteorológicas cercanas

Alt 840 ft 42.24 °N, 8.62 °W | Updated 14 minutes ago

Clear
Despejado
75 ° F
Sensación térmica 75 ° F
N
4
Viento Variable Viento desde SSO

Hoy
Alta -- | Baja -- ° F
--% Posibilidad de precipitaciones
Ayer
Alta -- | Baja -- ° F
Precip. -- pul
8:52 AM 7:38 PM
Creciente menguante, 2% visible
Presión 30.36 pul
Visibilidad -9999.0 Millas
Nubes
Punto de rocío 64 ° F
Humedad 69%
Precipitaciones 0.00 pul
Espesor de la nieve No disponible.
UV No disponible.
Polen No disponible.
Calidad del aire No disponible.
Flu Activity No disponible.
METAR LEVX 221200Z 20003KT 090V240 CAVOK 24/18 Q1028 NOSIG

More Conditions Fewer Conditions

Presión 30.36 pul
Visibilidad -9999.0 Millas
Nubes
Punto de rocío 64 ° F
Humedad 69%
Precipitaciones 0.00 pul
Espesor de la nieve No disponible.
UV No disponible.
Polen No disponible.
Calidad del aire No disponible.
Flu Activity No disponible.
METAR LEVX 221200Z 20003KT 090V240 CAVOK 24/18 Q1028 NOSIG

More Conditions Fewer Conditions

10-Day Weather Forecast

Almanac

Astronomía

Oct. 22, 2014 Salida Puesta
Hora real 8:52 AM CEST 7:38 PM CEST
Crepúsculo civil 8:23 AM CEST 8:07 PM CEST
Crepúsculo náutico 7:50 AM CEST 8:40 PM CEST
Crepúsculo astronómico 7:18 AM CEST 9:12 PM CEST
Luna 7:18 AM CEST 6:59 PM CEST
Horas de luz 11h 43m
Horas de luz
10h 46m
Tomorrow will be 2m 41s shorter.
Creciente menguante, 2% of the Moon is Illuminated
Hoy
Creciente menguante
Oct 23
Nueva
Oct 30
Cuarto creciente
Nov 6
Luna llena
Nov 14
Cuarto menguante

Extremos de ayer

Máximos del país Bajas del país

Community

WunderPhotos

Upload Photos

1,763,906 ¡fotos cargadas!

Nearby

Calidad del aire

Not available.

Grosos de nieve

Not available.

Actividad de terremotos

Ciudad Distance Mag. Tiempo y dato
No hay informes recientes de la actividad sísmica.
Magnitud mínima muestra es 2,5.

Temperaturas de aguas costeras

Lugar Temperatura
Sin partes meteorológicos de las estaciones

Estaciones meteorológicas cercanas